Time;durP1;ratioP1;P1;durP2;ratioP2;P2;SDS_P1;SDS_P2;PMS_P1;PMS_P2;Temp;Humidity;BMP_temperature;BMP_pressure;BME280_temperature;BME280_humidity;BME280_pressure;Samples;Min_cycle;Max_cycle;Signal;HPM_P1;HPM_P2
2022/12/06 00:09:39;;;;;;;82;57.5;;;;;;;4.9;88.6;98880;;;;
2022/12/06 00:19:39;;;;;;;82;57.5;;;;;;;4.7;88.6;98870;;;;
2022/12/06 00:29:39;;;;;;;83.5;61.4;;;;;;;4.7;89.1;98880;;;;
2022/12/06 00:40:39;;;;;;;83.5;61.4;;;;;;;4.8;89.1;98880;;;;
2022/12/06 00:51:39;;;;;;;74.5;56;;;;;;;4.9;89.1;98870;;;;
2022/12/06 01:02:39;;;;;;;74.5;56;;;;;;;5;89.1;98860;;;;
2022/12/06 01:13:39;;;;;;;74.5;56;;;;;;;5;89;98840;;;;
2022/12/06 01:24:39;;;;;;;68.3;54;;;;;;;5;88.9;98830;;;;
2022/12/06 01:35:40;;;;;;;68.3;54;;;;;;;5;88.7;98820;;;;
2022/12/06 01:45:39;;;;;;;68.3;54;;;;;;;5;88.7;98800;;;;
2022/12/06 01:55:39;;;;;;;62.8;47.7;;;;;;;5;88.9;98770;;;;
2022/12/06 02:06:39;;;;;;;62.8;47.7;;;;;;;4.8;89.2;98750;;;;
2022/12/06 02:16:39;;;;;;;62.8;47.7;;;;;;;4.9;89.3;98750;;;;
2022/12/06 02:26:39;;;;;;;67.1;47.1;;;;;;;5;89.3;98740;;;;
2022/12/06 02:36:39;;;;;;;67.1;47.1;;;;;;;5.1;89.3;98710;;;;
2022/12/06 02:47:39;;;;;;;67.1;47.1;;;;;;;4.8;89.4;98690;;;;
2022/12/06 02:58:39;;;;;;;60.7;46.4;;;;;;;4.7;90.1;98690;;;;
2022/12/06 03:09:39;;;;;;;60.7;46.4;;;;;;;4.8;90.4;98690;;;;
2022/12/06 03:20:41;;;;;;;60.7;46.4;;;;;;;4.8;90.5;98680;;;;
2022/12/06 03:31:39;;;;;;;57.7;44.9;;;;;;;4.8;90.8;98660;;;;
2022/12/06 03:42:39;;;;;;;57.7;44.9;;;;;;;4.8;90.9;98660;;;;
2022/12/06 03:52:39;;;;;;;51.6;40.7;;;;;;;4.8;91;98640;;;;
2022/12/06 04:03:39;;;;;;;51.6;40.7;;;;;;;4.6;91.6;98630;;;;
2022/12/06 04:13:39;;;;;;;51.6;40.7;;;;;;;4.8;91.5;98620;;;;
2022/12/06 04:24:39;;;;;;;49.5;37.3;;;;;;;4.8;91.4;98600;;;;
2022/12/06 04:44:39;;;;;;;49.5;37.3;;;;;;;5;91;98620;;;;
2022/12/06 04:55:39;;;;;;;48.7;38.9;;;;;;;5.2;90.8;98620;;;;
2022/12/06 05:05:39;;;;;;;48.7;38.9;;;;;;;5.2;90.3;98620;;;;
2022/12/06 05:16:39;;;;;;;48.7;38.9;;;;;;;5.1;89.9;98600;;;;
2022/12/06 05:27:39;;;;;;;46.7;34.5;;;;;;;4.8;89.9;98580;;;;
2022/12/06 05:37:39;;;;;;;46.7;34.5;;;;;;;4.7;90.2;98580;;;;
2022/12/06 05:48:39;;;;;;;46.7;34.5;;;;;;;4.8;90.2;98560;;;;
2022/12/06 05:58:39;;;;;;;41.7;32.4;;;;;;;4.7;90.1;98550;;;;
2022/12/06 06:09:39;;;;;;;41.7;32.4;;;;;;;4.7;90.3;98570;;;;
2022/12/06 06:19:39;;;;;;;41.7;32.4;;;;;;;4.7;90.2;98570;;;;
2022/12/06 06:30:39;;;;;;;35.5;27.5;;;;;;;4.7;90.2;98560;;;;
2022/12/06 06:40:39;;;;;;;35.5;27.5;;;;;;;4.8;90.1;98530;;;;
2022/12/06 06:51:39;;;;;;;30.4;24.7;;;;;;;4.8;89.9;98540;;;;
2022/12/06 07:02:39;;;;;;;30.4;24.7;;;;;;;4.8;89.9;98530;;;;
2022/12/06 07:12:39;;;;;;;30.4;24.7;;;;;;;4.9;89.8;98530;;;;
2022/12/06 07:22:39;;;;;;;29.6;23.6;;;;;;;4.9;89.9;98530;;;;
2022/12/06 07:33:39;;;;;;;29.6;23.6;;;;;;;4.8;89.5;98510;;;;
2022/12/06 07:53:40;;;;;;;30.5;25.6;;;;;;;4.5;90.5;98500;;;;
2022/12/06 08:03:39;;;;;;;30.5;25.6;;;;;;;4.8;90.5;98480;;;;
2022/12/06 08:14:39;;;;;;;30.5;25.6;;;;;;;4.9;90.1;98490;;;;
2022/12/06 08:25:40;;;;;;;27.1;21.7;;;;;;;5.1;90;98490;;;;
2022/12/06 08:36:39;;;;;;;27.1;21.7;;;;;;;5.2;89.7;98480;;;;
2022/12/06 08:46:39;;;;;;;27.1;21.7;;;;;;;5.3;89.2;98490;;;;
2022/12/06 08:57:39;;;;;;;28.7;21.3;;;;;;;5.4;89;98490;;;;
2022/12/06 09:08:39;;;;;;;28.7;21.3;;;;;;;5.5;88.9;98490;;;;
2022/12/06 09:19:39;;;;;;;28.7;21.3;;;;;;;5.7;88.5;98490;;;;
2022/12/06 09:29:40;;;;;;;29.4;20.6;;;;;;;5.7;87.9;98470;;;;
2022/12/06 09:40:39;;;;;;;29.4;20.6;;;;;;;5.6;87.7;98460;;;;
2022/12/06 09:50:40;;;;;;;25.8;22.6;;;;;;;5.6;87.6;98450;;;;
2022/12/06 10:01:39;;;;;;;25.8;22.6;;;;;;;5.5;87.5;98440;;;;
2022/12/06 10:12:39;;;;;;;25.8;22.6;;;;;;;5.5;87.7;98420;;;;
2022/12/06 10:22:39;;;;;;;25;20.9;;;;;;;5.5;87.9;98420;;;;
2022/12/06 10:33:39;;;;;;;25;20.9;;;;;;;5.7;88.3;98420;;;;
2022/12/06 10:43:39;;;;;;;25;20.9;;;;;;;5.7;87.7;98400;;;;
2022/12/06 10:54:40;;;;;;;24.5;21.6;;;;;;;5.9;87.7;98400;;;;
2022/12/06 11:05:39;;;;;;;24.5;21.6;;;;;;;6.1;87.1;98390;;;;
2022/12/06 11:15:39;;;;;;;24.5;21.6;;;;;;;6.2;87;98380;;;;
2022/12/06 11:25:40;;;;;;;27.4;21.8;;;;;;;6.1;86.9;98380;;;;
2022/12/06 11:35:40;;;;;;;27.4;21.8;;;;;;;6.1;86.9;98370;;;;
2022/12/06 11:46:39;;;;;;;27.4;21.8;;;;;;;5.9;87.3;98380;;;;
2022/12/06 11:56:40;;;;;;;26.9;23.4;;;;;;;5.9;87.8;98380;;;;
2022/12/06 12:06:39;;;;;;;26.9;23.4;;;;;;;5.8;88.1;98370;;;;
2022/12/06 12:16:40;;;;;;;26.9;23.4;;;;;;;5.7;88.6;98360;;;;
2022/12/06 12:26:40;;;;;;;37.4;30;;;;;;;5.7;89.1;98360;;;;
2022/12/06 12:37:40;;;;;;;37.4;30;;;;;;;5.7;89.1;98350;;;;
2022/12/06 12:47:40;;;;;;;37.4;30;;;;;;;5.7;89.3;98350;;;;
2022/12/06 12:57:40;;;;;;;29.8;23.6;;;;;;;5.6;89.4;98350;;;;
2022/12/06 13:08:40;;;;;;;29.8;23.6;;;;;;;5.6;89.5;98340;;;;
2022/12/06 13:19:40;;;;;;;26.4;19.8;;;;;;;5.3;89.6;98340;;;;
2022/12/06 13:30:40;;;;;;;26.4;19.8;;;;;;;5.1;89.4;98340;;;;
2022/12/06 13:40:40;;;;;;;26.4;19.8;;;;;;;5.1;88.7;98350;;;;
2022/12/06 13:51:40;;;;;;;11.7;8.8;;;;;;;4.7;88.7;98350;;;;
2022/12/06 14:01:40;;;;;;;11.7;8.8;;;;;;;4.5;87.6;98350;;;;
2022/12/06 14:11:40;;;;;;;11.7;8.8;;;;;;;4.2;87.8;98350;;;;
2022/12/06 14:22:40;;;;;;;8;4.8;;;;;;;4.1;88.4;98340;;;;
2022/12/06 14:32:40;;;;;;;8;4.8;;;;;;;4.1;88.5;98340;;;;
2022/12/06 14:43:41;;;;;;;8;4.8;;;;;;;4;88.4;98340;;;;
2022/12/06 14:53:40;;;;;;;10.2;5.8;;;;;;;3.9;88.9;98350;;;;
2022/12/06 15:03:40;;;;;;;10.2;5.8;;;;;;;4;88.9;98340;;;;
2022/12/06 15:14:40;;;;;;;10.2;5.8;;;;;;;4;88.8;98350;;;;
2022/12/06 15:25:40;;;;;;;16.7;10.3;;;;;;;4;89.1;98350;;;;
2022/12/06 15:36:40;;;;;;;16.7;10.3;;;;;;;3.9;89.3;98340;;;;
2022/12/06 15:46:40;;;;;;;16.7;10.3;;;;;;;3.8;89.3;98340;;;;
2022/12/06 15:57:40;;;;;;;14.2;10.2;;;;;;;3.7;89.2;98330;;;;
2022/12/06 16:07:40;;;;;;;14.2;10.2;;;;;;;3.6;89.5;98330;;;;
2022/12/06 16:18:40;;;;;;;14.2;10.2;;;;;;;3.6;89.6;98330;;;;
2022/12/06 16:29:40;;;;;;;17.3;10.5;;;;;;;3.6;90;98320;;;;
2022/12/06 16:39:40;;;;;;;17.3;10.5;;;;;;;3.6;90.2;98330;;;;
2022/12/06 16:50:40;;;;;;;14.9;9.2;;;;;;;3.7;90;98330;;;;
2022/12/06 17:01:40;;;;;;;14.9;9.2;;;;;;;3.7;89.6;98330;;;;
2022/12/06 17:12:40;;;;;;;14.9;9.2;;;;;;;3.7;89.3;98330;;;;
2022/12/06 17:22:40;;;;;;;12.1;8.1;;;;;;;3.8;89.3;98340;;;;
2022/12/06 17:33:40;;;;;;;12.1;8.1;;;;;;;3.8;89.4;98340;;;;
2022/12/06 17:44:40;;;;;;;12.1;8.1;;;;;;;3.9;89.3;98340;;;;
2022/12/06 17:54:40;;;;;;;13.8;9.2;;;;;;;3.8;89.1;98340;;;;
2022/12/06 18:05:41;;;;;;;13.8;9.2;;;;;;;3.7;89.1;98340;;;;
2022/12/06 18:15:42;;;;;;;13.8;9.2;;;;;;;3.6;89.1;98340;;;;
2022/12/06 18:26:40;;;;;;;12.3;7.3;;;;;;;3.6;89.4;98340;;;;
2022/12/06 18:37:40;;;;;;;12.3;7.3;;;;;;;3.6;89.4;98340;;;;
2022/12/06 18:48:40;;;;;;;12.3;7.3;;;;;;;3.5;89.4;98330;;;;
2022/12/06 18:58:40;;;;;;;11.4;6.5;;;;;;;3.4;89.6;98330;;;;
2022/12/06 19:09:40;;;;;;;11.4;6.5;;;;;;;3.3;89.7;98340;;;;
2022/12/06 19:20:40;;;;;;;10.4;6.6;;;;;;;3.3;89.8;98340;;;;
2022/12/06 19:30:40;;;;;;;10.4;6.6;;;;;;;3.1;90;98340;;;;
2022/12/06 19:40:40;;;;;;;10.4;6.6;;;;;;;3.1;90;98340;;;;
2022/12/06 19:51:40;;;;;;;13.4;7;;;;;;;3.1;90.1;98330;;;;
2022/12/06 20:02:40;;;;;;;13.4;7;;;;;;;3;90.4;98340;;;;
2022/12/06 20:12:40;;;;;;;13.4;7;;;;;;;3;90.7;98330;;;;
2022/12/06 20:23:40;;;;;;;11.1;6.8;;;;;;;3;91;98330;;;;
2022/12/06 20:34:40;;;;;;;11.1;6.8;;;;;;;2.9;91.4;98330;;;;
2022/12/06 20:45:40;;;;;;;11.1;6.8;;;;;;;2.9;91.3;98320;;;;
2022/12/06 20:56:41;;;;;;;12.2;7.7;;;;;;;2.9;91.2;98320;;;;
2022/12/06 21:06:40;;;;;;;12.2;7.7;;;;;;;3;91;98330;;;;
2022/12/06 21:17:40;;;;;;;12.2;7.7;;;;;;;3;90.8;98340;;;;
2022/12/06 21:27:40;;;;;;;12.1;6.8;;;;;;;2.9;90.6;98340;;;;
2022/12/06 21:37:40;;;;;;;12.1;6.8;;;;;;;2.9;90.5;98350;;;;
2022/12/06 21:48:40;;;;;;;12.4;7.3;;;;;;;3;90.5;98340;;;;
2022/12/06 21:58:40;;;;;;;12.4;7.3;;;;;;;2.9;90.2;98340;;;;
2022/12/06 22:09:40;;;;;;;12.4;7.3;;;;;;;3;90.2;98350;;;;
2022/12/06 22:20:40;;;;;;;9.8;4.8;;;;;;;2.9;89.9;98350;;;;
2022/12/06 22:30:40;;;;;;;9.8;4.8;;;;;;;3;89.9;98350;;;;
2022/12/06 22:40:40;;;;;;;9.8;4.8;;;;;;;3;90;98350;;;;
2022/12/06 22:51:40;;;;;;;8.3;5;;;;;;;3.1;89.8;98340;;;;
2022/12/06 23:02:40;;;;;;;8.3;5;;;;;;;3;89.6;98330;;;;
2022/12/06 23:13:40;;;;;;;8.3;5;;;;;;;3.1;89.7;98330;;;;
2022/12/06 23:24:40;;;;;;;6;3.5;;;;;;;3;89.7;98320;;;;
2022/12/06 23:34:40;;;;;;;6;3.5;;;;;;;3;89.8;98310;;;;
2022/12/06 23:44:40;;;;;;;6;3.5;;;;;;;3;89.7;98310;;;;
2022/12/06 23:54:40;;;;;;;10.2;5.9;;;;;;;3;89.6;98300;;;;
